Time;durP1;ratioP1;P1;durP2;ratioP2;P2;SDS_P1;SDS_P2;PMS_P1;PMS_P2;Temp;Humidity;BMP_temperature;BMP_pressure;BME280_temperature;BME280_humidity;BME280_pressure;Samples;Min_cycle;Max_cycle;Signal;HPM_P1;HPM_P2
2023/07/30 00:01:14;;;;;;;10.05;2.55;;;;;;;20.59;55.08;93807.16;5045392;28;20021;-78
2023/07/30 00:03:39;;;;;;;5.53;2.03;;;;;;;20.59;55.45;93805.22;5045410;28;20017;-78
2023/07/30 00:06:05;;;;;;;5.53;2.30;;;;;;;20.59;55.28;93805.22;5045565;28;20332;-78
2023/07/30 00:08:30;;;;;;;5.50;2.13;;;;;;;20.56;55.48;93800.53;5045447;28;20049;-78
2023/07/30 00:10:59;;;;;;;9.90;2.35;;;;;;;20.50;54.39;93790.47;5045216;28;20312;-78
2023/07/30 00:13:25;;;;;;;4.40;1.92;;;;;;;20.47;54.13;93797.38;5045162;28;20097;-78
2023/07/30 00:15:50;;;;;;;3.72;2.08;;;;;;;20.46;54.33;93785.00;5045235;28;20021;-78
2023/07/30 00:18:16;;;;;;;3.95;1.70;;;;;;;20.38;54.04;93789.59;5045058;28;20036;-77
2023/07/30 00:20:42;;;;;;;4.75;2.10;;;;;;;20.37;53.71;93798.09;5045290;28;20043;-77
2023/07/30 00:23:07;;;;;;;3.72;2.03;;;;;;;20.41;53.79;93790.75;5044948;28;20041;-77
2023/07/30 00:25:33;;;;;;;5.95;1.70;;;;;;;20.38;53.16;93797.72;5043774;28;20101;-77
2023/07/30 00:27:58;;;;;;;5.60;2.15;;;;;;;20.31;52.91;93794.94;5043733;28;20025;-78
2023/07/30 00:30:24;;;;;;;8.00;1.80;;;;;;;20.28;53.21;93797.66;5044857;28;20052;-77
2023/07/30 00:32:49;;;;;;;7.20;2.42;;;;;;;20.27;53.35;93787.97;5044340;28;20331;-77
2023/07/30 00:35:16;;;;;;;5.60;2.13;;;;;;;20.27;53.74;93785.25;5044995;28;20250;-77
2023/07/30 00:37:41;;;;;;;3.40;2.10;;;;;;;20.23;53.47;93783.31;5044861;28;20215;-77
2023/07/30 00:40:07;;;;;;;2.63;1.70;;;;;;;20.21;53.33;93777.50;5045056;28;20029;-78
2023/07/30 00:42:33;;;;;;;3.58;1.98;;;;;;;20.15;53.50;93778.22;5044781;28;20021;-78
2023/07/30 00:44:58;;;;;;;7.65;2.00;;;;;;;20.11;53.42;93780.13;5044696;28;20056;-77
2023/07/30 00:47:25;;;;;;;3.25;1.73;;;;;;;20.09;53.77;93783.22;5044690;28;20041;-77
2023/07/30 00:49:50;;;;;;;7.00;1.70;;;;;;;20.10;53.38;93779.34;5044011;28;20033;-77
2023/07/30 00:52:18;;;;;;;4.88;1.75;;;;;;;20.06;53.39;93792.06;5044248;28;20107;-78
2023/07/30 00:54:44;;;;;;;4.93;1.77;;;;;;;20.04;53.58;93788.97;5044598;28;20255;-78
2023/07/30 00:57:10;;;;;;;8.98;2.13;;;;;;;20.00;53.79;93780.03;5043308;28;20220;-78
2023/07/30 00:59:36;;;;;;;3.58;1.92;;;;;;;19.94;54.01;93792.34;5043917;28;20029;-78
2023/07/30 01:02:03;;;;;;;3.13;1.75;;;;;;;19.97;54.03;93786.22;5043645;28;20021;-78
2023/07/30 01:04:28;;;;;;;5.18;1.85;;;;;;;19.93;54.32;93796.22;5044031;28;20033;-78
2023/07/30 01:06:54;;;;;;;4.18;2.05;;;;;;;19.91;54.70;93793.13;5044176;28;20343;-79
2023/07/30 01:09:19;;;;;;;4.40;2.13;;;;;;;19.94;54.30;93784.25;5044352;28;20017;-79
2023/07/30 01:11:45;;;;;;;7.43;2.35;;;;;;;19.91;54.60;93787.72;5044115;28;20018;-79
2023/07/30 01:14:14;;;;;;;8.40;2.92;;;;;;;19.90;55.12;93786.16;5043800;28;20021;-79
2023/07/30 01:16:39;;;;;;;9.85;2.35;;;;;;;19.86;55.53;93785.34;5044019;28;20020;-79
2023/07/30 01:19:06;;;;;;;11.30;2.10;;;;;;;19.82;56.02;93786.09;5044126;28;20051;-79
2023/07/30 01:21:35;;;;;;;8.32;2.67;;;;;;;19.80;56.02;93795.72;5044014;28;20037;-79
2023/07/30 01:24:01;;;;;;;9.75;2.30;;;;;;;19.79;56.40;93784.13;5043817;28;20380;-78
2023/07/30 01:27:06;;;;;;;7.07;2.45;;;;;;;19.80;56.54;93783.00;5042065;28;20025;-78
2023/07/30 01:29:45;;;;;;;6.00;2.45;;;;;;;19.69;56.86;93787.47;4982314;28;20344;-79
2023/07/30 01:32:11;;;;;;;4.63;2.47;;;;;;;19.67;57.07;93789.00;4981539;28;20077;-79
2023/07/30 01:34:39;;;;;;;9.85;2.05;;;;;;;19.62;57.43;93790.09;5017857;28;20041;-80
2023/07/30 01:37:11;;;;;;;3.45;2.00;;;;;;;19.53;57.77;93789.66;5043543;28;20425;-79
2023/07/30 01:39:39;;;;;;;3.72;1.92;;;;;;;19.52;57.46;93788.06;5043745;28;20021;-79
2023/07/30 01:42:05;;;;;;;6.78;2.17;;;;;;;19.52;57.51;93785.38;5043740;28;20115;-79
2023/07/30 01:44:30;;;;;;;5.95;2.08;;;;;;;19.59;56.81;93791.63;5043490;28;20323;-78
2023/07/30 01:46:56;;;;;;;4.10;2.05;;;;;;;19.58;57.30;93792.00;5043634;28;20329;-79
2023/07/30 01:49:21;;;;;;;4.28;2.30;;;;;;;19.60;56.10;93790.50;5043503;28;20024;-79
2023/07/30 01:51:47;;;;;;;4.60;2.20;;;;;;;19.62;56.18;93792.81;5043364;28;20013;-79
2023/07/30 01:54:12;;;;;;;3.75;2.35;;;;;;;19.63;56.22;93791.69;5043320;28;20021;-79
2023/07/30 01:56:39;;;;;;;5.15;2.20;;;;;;;19.63;56.48;93797.84;5043869;28;20069;-79
2023/07/30 01:59:04;;;;;;;9.43;2.35;;;;;;;19.61;56.85;93792.03;5043708;28;20025;-79
2023/07/30 02:01:30;;;;;;;3.90;2.22;;;;;;;19.57;56.87;93796.63;5043152;28;20324;-79
2023/07/30 02:03:56;;;;;;;5.75;2.65;;;;;;;19.48;57.43;93796.16;5043270;28;20323;-79
2023/07/30 02:06:21;;;;;;;5.75;2.42;;;;;;;19.47;57.78;93801.94;5043088;28;20197;-79
2023/07/30 02:08:47;;;;;;;6.97;2.22;;;;;;;19.38;58.05;93799.53;5043241;28;20033;-79
2023/07/30 02:11:12;;;;;;;10.55;2.70;;;;;;;19.36;58.08;93808.00;5041733;28;20315;-79
2023/07/30 02:13:37;;;;;;;3.72;2.33;;;;;;;19.33;58.68;93802.56;5043323;28;20318;-79
2023/07/30 02:16:03;;;;;;;3.78;2.13;;;;;;;19.29;58.86;93799.03;5043015;28;20040;-80
2023/07/30 02:18:28;;;;;;;4.78;2.60;;;;;;;19.26;59.05;93797.88;5043077;28;20025;-80
2023/07/30 02:20:54;;;;;;;4.43;2.45;;;;;;;19.23;59.41;93804.00;5042875;28;20394;-80
2023/07/30 02:23:20;;;;;;;5.60;2.50;;;;;;;19.23;59.45;93804.00;5042887;28;20049;-80
2023/07/30 02:25:45;;;;;;;4.68;2.47;;;;;;;19.20;59.64;93807.44;5043006;28;20033;-80
2023/07/30 02:28:11;;;;;;;4.68;2.38;;;;;;;19.20;59.68;93802.03;5041800;28;20205;-79
2023/07/30 02:30:36;;;;;;;6.63;3.15;;;;;;;19.23;59.93;93807.50;5042904;28;20021;-79
2023/07/30 02:33:02;;;;;;;5.72;2.65;;;;;;;19.18;60.67;93798.94;5042682;28;20450;-79
2023/07/30 02:35:27;;;;;;;7.90;2.65;;;;;;;19.12;61.50;93809.28;5042820;28;20029;-79
2023/07/30 02:37:52;;;;;;;5.70;2.80;;;;;;;19.03;61.63;93814.19;5042850;28;20033;-80
2023/07/30 02:40:18;;;;;;;6.80;2.60;;;;;;;19.01;61.35;93814.56;5042572;28;20316;-80
2023/07/30 02:42:44;;;;;;;7.53;3.20;;;;;;;18.99;61.77;93818.75;5042706;28;20051;-80
2023/07/30 02:45:09;;;;;;;4.22;2.63;;;;;;;19.01;61.34;93811.88;5042998;28;20092;-80
2023/07/30 02:47:35;;;;;;;4.53;2.90;;;;;;;18.97;61.60;93807.53;5042877;28;20071;-79
2023/07/30 02:50:00;;;;;;;3.92;2.53;;;;;;;18.96;61.74;93812.16;5042512;28;20059;-79
2023/07/30 02:52:26;;;;;;;6.03;3.00;;;;;;;18.90;61.90;93808.25;5042476;28;20093;-79
2023/07/30 02:54:51;;;;;;;10.57;2.88;;;;;;;18.92;61.75;93808.66;5042426;28;20335;-80
2023/07/30 02:57:17;;;;;;;7.22;2.33;;;;;;;18.88;61.56;93815.94;5042575;28;20088;-80
2023/07/30 02:59:42;;;;;;;13.90;2.63;;;;;;;18.86;61.88;93806.66;5042601;28;20025;-79
2023/07/30 03:02:08;;;;;;;4.07;2.30;;;;;;;18.81;62.10;93808.53;5042750;28;20032;-79
2023/07/30 03:04:33;;;;;;;11.18;2.30;;;;;;;18.82;61.70;93809.28;5042449;28;20052;-79
2023/07/30 03:06:59;;;;;;;7.28;2.33;;;;;;;18.80;61.71;93815.06;5042504;28;20033;-79
2023/07/30 03:09:24;;;;;;;7.90;2.22;;;;;;;18.77;61.19;93818.47;5042555;28;20057;-79
2023/07/30 03:11:50;;;;;;;8.18;2.40;;;;;;;18.78;60.97;93821.94;5042655;28;20087;-79
2023/07/30 03:14:20;;;;;;;11.00;2.53;;;;;;;18.64;61.40;93815.22;5042560;28;20188;-80
2023/07/30 03:16:46;;;;;;;6.00;2.53;;;;;;;18.61;61.73;93815.94;5042507;28;20088;-80
2023/07/30 03:19:11;;;;;;;4.00;2.60;;;;;;;18.61;61.63;93813.22;5042334;28;20338;-80
2023/07/30 03:21:37;;;;;;;6.65;2.20;;;;;;;18.66;61.69;93820.22;5041176;28;20032;-80
2023/07/30 03:24:02;;;;;;;6.47;2.45;;;;;;;18.65;61.56;93824.84;5043575;28;20051;-79
2023/07/30 03:26:28;;;;;;;3.47;2.40;;;;;;;18.67;61.35;93816.41;5046186;28;20148;-79
2023/07/30 03:28:53;;;;;;;9.98;2.45;;;;;;;18.62;61.32;93814.00;5046034;28;20255;-79
2023/07/30 03:31:19;;;;;;;4.45;2.42;;;;;;;18.66;60.87;93814.84;5044711;28;20096;-80
2023/07/30 03:33:45;;;;;;;7.90;2.83;;;;;;;18.71;60.86;93811.06;5046020;28;20254;-80
2023/07/30 03:36:11;;;;;;;6.85;2.80;;;;;;;18.68;60.60;93814.47;5045876;28;20026;-79
2023/07/30 03:38:37;;;;;;;6.07;2.08;;;;;;;18.73;60.42;93814.94;5046230;28;20045;-79
2023/07/30 03:41:05;;;;;;;5.65;1.65;;;;;;;18.75;60.60;93817.28;5045895;28;20033;-79
2023/07/30 03:43:30;;;;;;;7.20;2.40;;;;;;;18.74;59.98;93815.72;5045939;28;20017;-79
2023/07/30 03:45:56;;;;;;;4.85;2.38;;;;;;;18.77;60.33;93815.00;5045728;28;20029;-79
2023/07/30 03:48:21;;;;;;;5.55;2.20;;;;;;;18.79;60.70;93818.13;5045736;28;20017;-79
2023/07/30 03:50:47;;;;;;;4.55;1.98;;;;;;;18.78;60.60;93828.09;5045574;28;20017;-79
2023/07/30 03:53:12;;;;;;;7.13;2.30;;;;;;;18.75;61.08;93817.28;5045821;28;20022;-78
2023/07/30 03:55:38;;;;;;;16.80;2.58;;;;;;;18.77;61.64;93820.41;5045878;28;20235;-79
2023/07/30 03:58:03;;;;;;;9.10;2.47;;;;;;;18.82;61.53;93820.09;5045556;28;20021;-79
2023/07/30 04:00:29;;;;;;;6.18;2.22;;;;;;;18.84;61.30;93825.91;5045485;28;20036;-79
2023/07/30 04:02:54;;;;;;;5.20;2.60;;;;;;;18.92;61.17;93832.19;5045411;28;20037;-79
2023/07/30 04:05:20;;;;;;;8.65;3.17;;;;;;;18.94;61.47;93832.59;5045505;28;20033;-78
2023/07/30 04:07:45;;;;;;;7.05;2.47;;;;;;;18.98;61.04;93826.09;5045469;28;20029;-79
2023/07/30 04:10:11;;;;;;;7.35;2.85;;;;;;;19.07;60.60;93833.13;5045417;28;20101;-80
2023/07/30 04:12:36;;;;;;;10.18;3.00;;;;;;;19.16;60.57;93837.13;5045424;28;20041;-80
2023/07/30 04:15:02;;;;;;;4.18;2.75;;;;;;;19.29;60.29;93834.16;5045374;28;20100;-80
2023/07/30 04:17:27;;;;;;;5.88;2.70;;;;;;;19.36;60.35;93840.44;5045319;28;20029;-79
2023/07/30 04:19:53;;;;;;;5.22;3.13;;;;;;;19.43;60.00;93840.50;5045024;28;20105;-79
2023/07/30 04:22:18;;;;;;;7.90;2.95;;;;;;;19.51;60.16;93848.69;5045183;28;20045;-79
2023/07/30 04:24:44;;;;;;;5.82;3.08;;;;;;;19.44;60.27;93842.06;5045121;28;20028;-79
2023/07/30 04:27:09;;;;;;;7.90;2.95;;;;;;;19.38;61.01;93840.84;5045246;28;20022;-80
2023/07/30 04:29:34;;;;;;;10.48;3.05;;;;;;;19.45;60.56;93832.81;5045119;28;20327;-80
2023/07/30 04:32:00;;;;;;;6.28;3.10;;;;;;;19.53;61.05;93838.31;5044900;28;20045;-80
2023/07/30 04:34:25;;;;;;;14.00;3.28;;;;;;;19.63;60.82;93843.81;5044378;28;20029;-80
2023/07/30 04:36:51;;;;;;;6.88;3.28;;;;;;;19.68;60.25;93833.81;5044913;28;20044;-80
2023/07/30 04:39:16;;;;;;;9.48;3.47;;;;;;;19.73;59.45;93836.22;5044849;28;20090;-80
2023/07/30 04:41:42;;;;;;;18.77;3.53;;;;;;;19.77;59.44;93835.09;5044747;28;20029;-80
2023/07/30 04:44:07;;;;;;;12.75;4.00;;;;;;;19.81;59.21;93838.63;5044731;28;20030;-80
2023/07/30 04:46:33;;;;;;;5.47;2.90;;;;;;;19.90;59.93;93845.66;5044685;28;20040;-80
2023/07/30 04:48:58;;;;;;;12.60;3.47;;;;;;;19.94;60.29;93839.13;5044450;28;20028;-81
2023/07/30 04:51:24;;;;;;;14.50;3.78;;;;;;;20.00;59.94;93847.66;5044559;28;20052;-80
2023/07/30 04:53:49;;;;;;;6.32;3.08;;;;;;;19.98;60.67;93841.84;5044483;28;20024;-80
2023/07/30 04:56:15;;;;;;;8.85;4.03;;;;;;;20.01;60.87;93849.25;5044499;28;20312;-80
2023/07/30 04:58:40;;;;;;;10.55;3.67;;;;;;;19.98;60.37;93842.63;5044592;28;20106;-78
2023/07/30 05:01:06;;;;;;;7.25;3.55;;;;;;;20.01;61.28;93852.72;5044369;28;20328;-80
2023/07/30 05:03:31;;;;;;;6.10;3.78;;;;;;;20.02;60.68;93846.13;5044218;28;20045;-79
2023/07/30 05:05:56;;;;;;;6.32;4.07;;;;;;;20.06;60.62;93848.88;5044241;28;20018;-79
2023/07/30 05:08:22;;;;;;;8.93;3.78;;;;;;;20.15;60.34;93845.84;5044129;28;20025;-79
2023/07/30 05:10:47;;;;;;;7.80;4.60;;;;;;;20.18;59.54;93845.91;5044201;28;20363;-79
2023/07/30 05:13:13;;;;;;;7.75;4.20;;;;;;;20.17;59.39;93838.13;5044209;28;20025;-79
2023/07/30 05:15:38;;;;;;;9.73;4.07;;;;;;;20.19;60.24;93835.84;5044296;28;20092;-79
2023/07/30 05:18:04;;;;;;;16.35;4.97;;;;;;;20.32;60.09;93844.47;5043881;28;20056;-79
2023/07/30 05:20:29;;;;;;;9.90;3.70;;;;;;;20.38;58.65;93842.97;5043898;28;20052;-79
2023/07/30 05:22:55;;;;;;;6.32;3.88;;;;;;;20.47;58.21;93842.63;5043961;28;20025;-79
2023/07/30 05:25:20;;;;;;;14.23;4.88;;;;;;;20.55;58.06;93853.13;5043971;28;20342;-79
2023/07/30 05:27:46;;;;;;;6.55;4.00;;;;;;;20.61;58.24;93848.94;5043812;28;20033;-79
2023/07/30 05:30:11;;;;;;;12.77;4.45;;;;;;;20.72;58.19;93848.22;5043981;28;20033;-79
2023/07/30 05:32:36;;;;;;;7.90;3.45;;;;;;;20.73;58.06;93842.44;5043618;28;20108;-79
2023/07/30 05:35:02;;;;;;;17.38;4.43;;;;;;;20.83;58.39;93840.97;5043709;28;20340;-80
2023/07/30 05:37:28;;;;;;;9.85;4.10;;;;;;;20.95;57.64;93842.56;5043589;28;20031;-79
2023/07/30 05:39:53;;;;;;;10.00;3.97;;;;;;;21.02;57.42;93846.09;5043695;28;20303;-79
2023/07/30 05:42:18;;;;;;;9.43;3.53;;;;;;;21.02;56.76;93854.22;5043572;28;20216;-80
2023/07/30 05:44:44;;;;;;;11.27;3.65;;;;;;;21.07;56.53;93853.09;5043573;28;20029;-81
2023/07/30 05:47:09;;;;;;;15.15;3.97;;;;;;;21.11;56.33;93855.81;5042892;28;20036;-81
2023/07/30 05:49:34;;;;;;;10.35;3.58;;;;;;;21.19;55.94;93846.56;5043659;28;20092;-81
2023/07/30 05:52:00;;;;;;;8.57;3.50;;;;;;;21.22;55.78;93851.22;5043317;28;20260;-81
2023/07/30 05:54:25;;;;;;;9.85;3.60;;;;;;;21.32;55.74;93849.72;5043283;28;20070;-81
2023/07/30 05:56:51;;;;;;;8.32;3.33;;;;;;;21.43;55.13;93845.13;5043368;28;20252;-81
2023/07/30 05:59:16;;;;;;;7.40;3.08;;;;;;;21.58;55.63;93845.97;5043335;28;20025;-80
2023/07/30 06:01:42;;;;;;;5.88;3.30;;;;;;;21.75;54.83;93853.34;5042884;28;20177;-80
2023/07/30 06:04:08;;;;;;;10.68;3.40;;;;;;;21.91;53.97;93853.00;5043260;28;20029;-79
2023/07/30 06:06:33;;;;;;;5.80;2.72;;;;;;;22.02;53.02;93858.44;5043228;28;20037;-80
2023/07/30 06:08:59;;;;;;;5.00;2.63;;;;;;;22.14;52.09;93860.00;5042128;28;20040;-82
2023/07/30 06:11:25;;;;;;;5.88;2.90;;;;;;;22.22;51.67;93859.63;5043140;28;20017;-81
2023/07/30 06:13:50;;;;;;;6.03;2.63;;;;;;;22.27;51.37;93855.00;5043158;28;20025;-81
2023/07/30 06:16:19;;;;;;;7.82;4.97;;;;;;;22.30;51.50;93857.72;5043002;28;20093;-80
2023/07/30 06:18:44;;;;;;;5.82;2.78;;;;;;;22.26;50.46;93861.59;5042693;28;20029;-78
2023/07/30 06:21:09;;;;;;;4.30;2.50;;;;;;;22.34;50.16;93857.72;5041752;28;20120;-80
2023/07/30 06:23:35;;;;;;;7.53;2.88;;;;;;;22.46;50.00;93862.75;5043231;28;20036;-80
2023/07/30 06:26:00;;;;;;;7.45;2.58;;;;;;;22.57;49.96;93849.97;5041764;28;20025;-79
2023/07/30 06:28:26;;;;;;;7.32;2.95;;;;;;;22.68;48.36;93857.31;5042928;28;20029;-80
2023/07/30 06:31:01;;;;;;;5.97;3.35;;;;;;;22.68;48.84;93852.66;5042874;28;20036;-73
2023/07/30 06:33:26;;;;;;;4.15;2.40;;;;;;;22.75;49.79;93852.63;5042793;28;20398;-72
2023/07/30 06:35:51;;;;;;;15.35;3.25;;;;;;;22.88;48.89;93849.50;5042837;28;20041;-71
2023/07/30 06:38:17;;;;;;;4.85;2.53;;;;;;;22.92;50.37;93842.91;5042772;28;20269;-73
2023/07/30 06:40:42;;;;;;;7.30;3.22;;;;;;;22.90;49.23;93842.53;5042665;28;20025;-74
2023/07/30 06:43:08;;;;;;;16.20;3.03;;;;;;;23.01;48.08;93843.28;5042622;28;20025;-75
2023/07/30 06:45:33;;;;;;;5.60;2.40;;;;;;;23.07;47.95;93848.34;5042871;28;20096;-75
2023/07/30 06:47:59;;;;;;;6.40;2.35;;;;;;;23.08;48.47;93845.25;5041730;28;20232;-75
2023/07/30 06:50:24;;;;;;;9.82;2.45;;;;;;;23.12;49.05;93840.56;5042798;28;20025;-75
2023/07/30 06:52:50;;;;;;;4.13;2.95;;;;;;;23.26;49.60;93831.56;5042886;28;20378;-75
2023/07/30 06:55:15;;;;;;;9.43;3.13;;;;;;;23.35;48.63;93823.00;5042931;28;20084;-74
2023/07/30 06:57:41;;;;;;;11.82;2.67;;;;;;;23.51;47.94;93834.19;5043377;28;20219;-73
2023/07/30 07:00:07;;;;;;;5.72;3.22;;;;;;;23.63;47.78;93822.09;5046923;28;20029;-73
2023/07/30 07:02:32;;;;;;;6.07;2.85;;;;;;;23.72;47.81;93827.84;5046891;28;20177;-73
2023/07/30 07:04:58;;;;;;;10.48;4.53;;;;;;;23.87;46.07;93825.06;5046803;28;20200;-73
2023/07/30 07:07:23;;;;;;;8.90;3.08;;;;;;;23.89;46.49;93825.44;5046711;28;20025;-75
2023/07/30 07:09:49;;;;;;;5.97;2.95;;;;;;;23.96;46.39;93814.53;5046557;28;20247;-74
2023/07/30 07:12:14;;;;;;;5.60;3.00;;;;;;;23.99;46.56;93819.94;5046637;28;20036;-73
2023/07/30 07:14:40;;;;;;;9.48;3.05;;;;;;;24.11;45.59;93818.69;5046578;28;20335;-73
2023/07/30 07:17:06;;;;;;;12.50;3.40;;;;;;;24.16;45.84;93814.75;5046660;28;20280;-73
2023/07/30 07:19:36;;;;;;;8.77;2.90;;;;;;;24.25;46.05;93806.91;5046407;28;20060;-73
2023/07/30 07:22:01;;;;;;;26.67;3.03;;;;;;;24.35;46.27;93814.22;5046318;28;20092;-73
2023/07/30 07:24:27;;;;;;;9.35;2.95;;;;;;;24.47;46.36;93809.47;5046172;28;20083;-73
2023/07/30 07:26:52;;;;;;;7.25;2.92;;;;;;;24.54;45.79;93812.91;5046148;28;20017;-73
2023/07/30 07:29:18;;;;;;;10.20;3.17;;;;;;;24.54;44.79;93810.19;5045029;28;20035;-73
2023/07/30 07:31:45;;;;;;;6.05;2.78;;;;;;;24.56;44.58;93807.81;5046050;28;20120;-73
2023/07/30 07:34:10;;;;;;;6.68;3.20;;;;;;;24.70;44.16;93793.31;5046357;28;20034;-73
2023/07/30 07:36:37;;;;;;;5.18;2.90;;;;;;;24.82;44.89;93792.00;5044959;28;20033;-73
2023/07/30 07:39:03;;;;;;;8.88;2.78;;;;;;;24.90;44.10;93788.03;5045886;28;20048;-73
2023/07/30 07:41:29;;;;;;;11.23;3.30;;;;;;;25.04;43.77;93803.47;5045900;28;20222;-75
2023/07/30 07:43:54;;;;;;;6.13;3.25;;;;;;;25.07;43.41;93801.88;5045934;28;20041;-73
2023/07/30 07:46:20;;;;;;;4.57;2.78;;;;;;;25.19;43.35;93793.16;5045871;28;20251;-74
2023/07/30 07:48:46;;;;;;;7.45;2.47;;;;;;;25.27;43.23;93789.19;5044782;28;20033;-73
2023/07/30 07:51:11;;;;;;;4.32;2.60;;;;;;;25.33;42.65;93784.81;5045768;28;20327;-74
2023/07/30 07:53:38;;;;;;;5.03;2.10;;;;;;;25.34;40.90;93785.59;5046007;28;20025;-75
2023/07/30 07:56:04;;;;;;;18.92;3.28;;;;;;;25.36;41.76;93781.28;5045625;28;20266;-76
2023/07/30 07:58:30;;;;;;;7.60;2.58;;;;;;;25.38;41.63;93789.84;5045640;28;20033;-76
2023/07/30 08:00:56;;;;;;;8.63;2.78;;;;;;;25.49;41.60;93783.47;5045707;28;20049;-75
2023/07/30 08:03:22;;;;;;;7.57;2.67;;;;;;;25.60;41.45;93789.53;5045305;28;20028;-76
2023/07/30 08:05:48;;;;;;;5.00;2.97;;;;;;;25.63;40.28;93789.50;5045555;28;20254;-76
2023/07/30 08:08:14;;;;;;;4.82;2.47;;;;;;;25.61;40.05;93785.66;5045446;28;20052;-76
2023/07/30 08:10:42;;;;;;;5.30;2.50;;;;;;;25.64;39.63;93776.63;5044693;28;20071;-75
2023/07/30 08:13:13;;;;;;;8.57;2.10;;;;;;;25.69;39.93;93781.63;5045398;28;20220;-74
2023/07/30 08:15:39;;;;;;;16.00;2.47;;;;;;;25.80;39.84;93781.47;5045413;28;20024;-73
2023/07/30 08:18:04;;;;;;;4.10;2.67;;;;;;;25.88;38.73;93779.41;5045081;28;20029;-73
2023/07/30 08:20:30;;;;;;;6.50;2.70;;;;;;;25.98;39.17;93779.28;5045011;28;20036;-73
2023/07/30 08:22:55;;;;;;;4.43;2.58;;;;;;;26.10;39.41;93772.47;5044998;28;20101;-73
2023/07/30 08:25:21;;;;;;;8.43;3.63;;;;;;;26.16;38.14;93776.28;5045127;28;20037;-72
2023/07/30 08:27:46;;;;;;;7.05;2.20;;;;;;;26.31;38.53;93770.56;5044933;28;20354;-73
2023/07/30 08:30:15;;;;;;;4.75;2.70;;;;;;;26.35;38.24;93766.59;5044961;28;20029;-73
2023/07/30 08:32:42;;;;;;;3.97;2.13;;;;;;;26.51;38.38;93776.84;5044394;28;20045;-75
2023/07/30 08:35:11;;;;;;;3.22;1.92;;;;;;;26.60;36.84;93760.72;5045141;28;20100;-77
2023/07/30 08:37:37;;;;;;;8.52;2.63;;;;;;;26.68;37.83;93763.31;5045173;28;20063;-72
2023/07/30 08:40:03;;;;;;;8.52;2.15;;;;;;;26.80;37.19;93762.69;5044910;28;20242;-72
2023/07/30 08:42:29;;;;;;;5.80;2.55;;;;;;;26.90;36.53;93761.72;5044890;28;20021;-73
2023/07/30 08:44:54;;;;;;;4.50;2.30;;;;;;;26.82;35.74;93749.38;5044830;28;20048;-72
2023/07/30 08:47:20;;;;;;;8.70;2.60;;;;;;;26.87;35.79;93759.84;5044781;28;20017;-72
2023/07/30 08:49:45;;;;;;;5.53;2.78;;;;;;;26.90;35.50;93750.78;5045130;28;20086;-72
2023/07/30 08:52:11;;;;;;;3.67;2.40;;;;;;;26.95;35.11;93753.03;5043364;28;20029;-72
2023/07/30 08:54:38;;;;;;;4.97;2.40;;;;;;;26.92;35.30;93748.41;5044677;28;20025;-73
2023/07/30 08:57:04;;;;;;;7.35;2.88;;;;;;;26.97;35.88;93745.19;5044807;28;20021;-72
2023/07/30 08:59:52;;;;;;;5.85;2.28;;;;;;;26.98;35.70;93752.19;5044279;28;20366;-72
2023/07/30 09:02:26;;;;;;;5.93;2.30;;;;;;;27.15;35.98;93749.50;5044755;28;20067;-73
2023/07/30 09:04:56;;;;;;;6.97;2.38;;;;;;;27.31;35.99;93741.38;5044396;28;20068;-73
2023/07/30 09:07:24;;;;;;;8.77;2.20;;;;;;;27.40;33.20;93741.59;5044378;28;20244;-73
2023/07/30 09:09:50;;;;;;;4.95;2.10;;;;;;;27.49;33.56;93743.75;5044497;28;20059;-72
2023/07/30 09:12:15;;;;;;;4.82;2.33;;;;;;;27.57;32.78;93742.41;5043086;28;20057;-73
2023/07/30 09:14:45;;;;;;;5.55;2.08;;;;;;;27.65;32.97;93737.53;5044394;28;20021;-71
2023/07/30 09:17:16;;;;;;;11.10;3.08;;;;;;;27.76;33.36;93746.28;5044327;28;20032;-70
2023/07/30 09:19:42;;;;;;;6.35;2.35;;;;;;;27.71;31.45;93735.84;5044116;28;20044;-72
2023/07/30 09:22:07;;;;;;;8.77;2.63;;;;;;;27.72;32.67;93736.59;5042861;28;20312;-72
2023/07/30 09:24:33;;;;;;;7.82;2.50;;;;;;;27.89;31.06;93738.19;5044175;28;20033;-72
2023/07/30 09:27:01;;;;;;;5.95;2.80;;;;;;;28.04;30.97;93741.34;5043951;28;20040;-72
2023/07/30 09:29:27;;;;;;;10.52;2.60;;;;;;;28.13;29.30;93738.81;5043690;28;20025;-72
2023/07/30 09:31:56;;;;;;;5.50;2.53;;;;;;;28.17;29.46;93731.25;5043985;28;20046;-71
2023/07/30 09:34:23;;;;;;;7.22;2.13;;;;;;;28.27;29.37;93726.72;5043837;28;20033;-71
2023/07/30 09:36:54;;;;;;;6.40;2.40;;;;;;;28.29;29.31;93723.53;5043947;28;20022;-73
2023/07/30 09:39:24;;;;;;;8.75;2.10;;;;;;;28.39;29.85;93714.25;5043649;28;20100;-73
2023/07/30 09:41:51;;;;;;;4.43;2.47;;;;;;;28.55;29.99;93718.97;5043458;28;20205;-73
2023/07/30 09:44:20;;;;;;;4.28;2.45;;;;;;;28.54;29.88;93710.00;5043493;28;20113;-73
2023/07/30 09:46:48;;;;;;;8.95;2.70;;;;;;;28.55;30.11;93714.25;5043566;28;20017;-73
2023/07/30 09:49:14;;;;;;;8.77;4.18;;;;;;;28.68;29.49;93713.53;5043519;28;20024;-73
2023/07/30 09:51:40;;;;;;;6.20;2.60;;;;;;;28.85;29.29;93709.56;5043693;28;20024;-73
2023/07/30 09:54:15;;;;;;;10.15;3.00;;;;;;;28.98;29.27;93713.13;5080282;28;20389;-73
2023/07/30 09:56:41;;;;;;;6.15;2.45;;;;;;;29.10;29.38;93706.09;5080107;28;20017;-72
2023/07/30 09:59:08;;;;;;;5.13;2.67;;;;;;;29.24;29.79;93709.69;5080036;28;20016;-73
2023/07/30 10:01:55;;;;;;;4.75;2.40;;;;;;;29.29;29.57;93698.94;5079869;28;20028;-73
2023/07/30 10:04:22;;;;;;;4.50;2.40;;;;;;;29.40;29.60;93704.09;5079757;28;20070;-72
2023/07/30 10:07:04;;;;;;;4.85;2.95;;;;;;;29.51;29.74;93693.53;5078521;28;20033;-72
2023/07/30 10:09:43;;;;;;;4.95;2.65;;;;;;;29.62;29.68;93689.72;5079720;28;20029;-73
2023/07/30 10:12:15;;;;;;;6.93;2.60;;;;;;;29.76;29.25;93689.31;5079877;28;20023;-72
2023/07/30 10:14:41;;;;;;;5.88;2.50;;;;;;;29.83;29.07;93685.56;5079589;28;20039;-72
2023/07/30 10:17:10;;;;;;;7.38;2.88;;;;;;;29.91;27.92;93682.13;5079887;28;20211;-72
2023/07/30 10:19:36;;;;;;;5.78;2.60;;;;;;;29.95;28.76;93676.53;5079755;28;20040;-73
2023/07/30 10:22:13;;;;;;;3.65;2.40;;;;;;;30.08;29.24;93680.00;5079457;28;20059;-73
2023/07/30 10:24:39;;;;;;;4.28;2.72;;;;;;;30.21;29.41;93671.75;5079446;28;20040;-72
2023/07/30 10:27:11;;;;;;;4.22;2.33;;;;;;;30.15;28.02;93668.78;5079530;28;20215;-72
2023/07/30 10:29:41;;;;;;;5.60;2.88;;;;;;;30.25;28.30;93663.38;5079568;28;20095;-73
2023/07/30 10:32:07;;;;;;;16.17;2.63;;;;;;;30.33;28.97;93656.47;5079371;28;20123;-72
2023/07/30 10:34:46;;;;;;;4.18;2.85;;;;;;;30.51;28.02;93666.81;5079152;28;20032;-72
2023/07/30 10:37:18;;;;;;;4.85;2.90;;;;;;;30.57;27.49;93665.81;5077500;28;20024;-72
2023/07/30 10:39:47;;;;;;;;;;;;;;;30.47;28.04;93661.47;5079622;28;20095;-72
2023/07/30 10:42:14;;;;;;;4.32;2.40;;;;;;;30.32;27.72;93652.16;5078961;28;19904;-72
2023/07/30 10:44:44;;;;;;;30.52;16.85;;;;;;;30.37;27.14;93646.88;5078648;28;20029;-73
2023/07/30 10:47:10;;;;;;;5.88;3.03;;;;;;;30.44;27.24;93647.84;5079039;28;20043;-73
2023/07/30 10:49:40;;;;;;;6.15;2.55;;;;;;;30.45;27.60;93643.88;5078925;28;20029;-74
2023/07/30 10:52:06;;;;;;;5.97;3.08;;;;;;;30.63;27.72;93641.25;5078812;28;20025;-73
2023/07/30 10:54:35;;;;;;;5.35;2.70;;;;;;;30.70;27.32;93634.75;5077636;28;20096;-73
2023/07/30 10:57:02;;;;;;;10.30;2.47;;;;;;;30.63;26.59;93635.00;5077459;28;20033;-73
2023/07/30 10:59:34;;;;;;;9.75;2.60;;;;;;;30.84;28.94;93623.22;5078563;28;20025;-74
2023/07/30 11:01:59;;;;;;;5.95;2.70;;;;;;;30.99;27.23;93624.22;5078549;28;20028;-71
2023/07/30 11:04:25;;;;;;;6.07;2.88;;;;;;;31.12;27.05;93624.16;5071898;28;20025;-72
2023/07/30 11:06:51;;;;;;;3.97;2.70;;;;;;;31.24;26.34;93619.75;5065232;28;20350;-73
2023/07/30 11:09:25;;;;;;;6.45;2.60;;;;;;;31.28;25.27;93616.88;5065408;28;20033;-72
2023/07/30 11:11:52;;;;;;;7.57;3.17;;;;;;;31.16;26.42;93613.00;5065355;28;20025;-71
2023/07/30 11:14:21;;;;;;;11.15;3.08;;;;;;;31.17;26.45;93606.28;5065320;28;20231;-72
2023/07/30 11:16:52;;;;;;;4.10;2.67;;;;;;;31.30;27.69;93604.19;5065221;28;20047;-71
2023/07/30 11:19:18;;;;;;;12.90;3.00;;;;;;;31.45;26.77;93600.91;5065142;28;20020;-72
2023/07/30 11:21:54;;;;;;;13.85;2.63;;;;;;;31.68;26.73;93602.38;5065252;28;20266;-72
2023/07/30 11:24:21;;;;;;;5.57;2.72;;;;;;;31.73;25.21;93602.53;5065226;28;20138;-73
2023/07/30 11:26:57;;;;;;;5.32;3.10;;;;;;;31.85;25.48;93591.81;5065157;28;20032;-72
2023/07/30 11:29:23;;;;;;;7.43;2.90;;;;;;;32.06;26.60;93593.72;5065105;28;20088;-72